createdAt,value
2018-08-09T00:01:07.827Z,9.87
2018-08-09T00:03:36.091Z,10.50
2018-08-09T00:06:04.285Z,11.37
2018-08-09T00:08:32.770Z,11.33
2018-08-09T00:11:01.532Z,10.93
2018-08-09T00:13:29.707Z,12.20
2018-08-09T00:15:58.297Z,12.67
2018-08-09T00:20:58.723Z,12.37
2018-08-09T00:23:26.938Z,13.03
2018-08-09T00:25:55.166Z,12.47
2018-08-09T00:28:23.384Z,12.50
2018-08-09T00:30:51.563Z,11.63
2018-08-09T00:33:20.309Z,11.07
2018-08-09T00:35:48.500Z,11.97
2018-08-09T00:38:17.018Z,13.00
2018-08-09T00:40:45.228Z,11.67
2018-08-09T00:43:14.040Z,12.67
2018-08-09T00:45:42.516Z,12.10
2018-08-09T00:48:10.984Z,12.73
2018-08-09T00:50:39.424Z,12.40
2018-08-09T00:53:08.572Z,12.53
2018-08-09T00:55:36.754Z,12.00
2018-08-09T00:58:05.265Z,12.73
2018-08-09T01:00:33.923Z,12.80
2018-08-09T01:03:02.151Z,11.97
2018-08-09T01:05:30.628Z,13.43
2018-08-09T01:07:59.169Z,13.10
2018-08-09T01:10:27.412Z,12.80
2018-08-09T01:12:55.641Z,12.87
2018-08-09T01:15:23.816Z,12.07
2018-08-09T01:17:52.121Z,13.40
2018-08-09T01:20:20.295Z,13.53
2018-08-09T01:22:49.329Z,13.23
2018-08-09T01:25:17.535Z,12.70
2018-08-09T01:27:46.040Z,12.47
2018-08-09T01:30:14.556Z,13.03
2018-08-09T01:32:42.898Z,13.80
2018-08-09T01:35:11.094Z,13.93
2018-08-09T01:37:39.328Z,13.63
2018-08-09T01:40:07.786Z,13.70
2018-08-09T01:42:53.535Z,14.10
2018-08-09T01:45:21.738Z,12.40
2018-08-09T01:47:50.506Z,13.53
2018-08-09T01:50:18.714Z,13.10
2018-08-09T01:52:47.212Z,12.80
2018-08-09T01:55:15.476Z,11.73
2018-08-09T01:57:44.339Z,11.97
2018-08-09T02:00:12.883Z,11.40
2018-08-09T02:02:41.140Z,11.70
2018-08-09T02:05:09.984Z,10.87
2018-08-09T02:07:38.224Z,11.37
2018-08-09T02:10:06.494Z,12.50
2018-08-09T02:12:35.317Z,11.80
2018-08-09T02:15:04.135Z,12.07
2018-08-09T02:17:32.596Z,12.67
2018-08-09T02:20:01.199Z,11.43
2018-08-09T02:22:29.747Z,12.87
2018-08-09T02:24:58.260Z,12.20
2018-08-09T02:27:26.453Z,12.10
2018-08-09T02:29:54.655Z,12.60
2018-08-09T02:32:22.860Z,11.83
2018-08-09T02:34:51.606Z,12.97
2018-08-09T02:37:20.052Z,13.50
2018-08-09T02:39:48.459Z,17.77
2018-08-09T02:42:17.251Z,19.07
2018-08-09T02:44:45.957Z,24.03
2018-08-09T02:47:14.465Z,23.23
2018-08-09T02:49:42.772Z,21.40
2018-08-09T02:52:11.296Z,16.80
2018-08-09T02:54:40.107Z,16.40
2018-08-09T02:57:08.604Z,16.33
2018-08-09T02:59:37.067Z,14.83
2018-08-09T03:02:05.323Z,15.33
2018-08-09T03:04:33.535Z,29.47
2018-08-09T03:07:01.708Z,21.37
2018-08-09T03:09:29.960Z,17.43
2018-08-09T03:11:58.508Z,16.13
2018-08-09T03:14:26.960Z,17.30
2018-08-09T03:16:58.094Z,15.57
2018-08-09T03:19:26.307Z,15.23
2018-08-09T03:21:54.869Z,15.03
2018-08-09T03:24:23.437Z,14.47
2018-08-09T03:26:52.070Z,36.20
2018-08-09T03:29:20.577Z,16.23
2018-08-09T03:31:49.007Z,14.77
2018-08-09T03:34:17.546Z,14.30
2018-08-09T03:36:46.054Z,20.80
2018-08-09T03:39:14.265Z,16.43
2018-08-09T03:41:42.436Z,15.03
2018-08-09T03:44:10.980Z,14.83
2018-08-09T03:46:39.165Z,16.17
2018-08-09T03:49:07.636Z,15.90
2018-08-09T03:51:36.185Z,14.83
2018-08-09T03:54:05.211Z,16.20
2018-08-09T03:56:33.393Z,15.37
2018-08-09T03:59:02.246Z,16.00
2018-08-09T04:01:30.453Z,15.67
2018-08-09T04:03:58.683Z,15.70
2018-08-09T04:06:26.891Z,14.80
2018-08-09T04:08:55.485Z,14.87
2018-08-09T04:11:23.972Z,15.10
2018-08-09T04:13:52.576Z,14.67
2018-08-09T04:16:21.090Z,14.60
2018-08-09T04:18:49.620Z,14.73
2018-08-09T04:21:17.861Z,14.73
2018-08-09T04:23:46.157Z,15.23
2018-08-09T04:26:14.378Z,12.97
2018-08-09T04:28:42.885Z,15.43
2018-08-09T04:31:11.161Z,13.57
2018-08-09T04:33:39.440Z,13.50
2018-08-09T04:36:07.852Z,13.40
2018-08-09T04:38:36.718Z,13.70
2018-08-09T04:41:05.293Z,15.47
2018-08-09T04:43:33.857Z,13.57
2018-08-09T04:46:02.342Z,14.43
2018-08-09T04:48:32.434Z,14.37
2018-08-09T04:51:00.620Z,16.23
2018-08-09T04:53:29.234Z,15.17
2018-08-09T04:55:57.471Z,14.67
2018-08-09T04:58:25.720Z,18.37
2018-08-09T05:00:54.470Z,14.57
2018-08-09T05:03:23.057Z,13.57
2018-08-09T05:05:51.534Z,14.77
2018-08-09T05:08:19.989Z,14.30
2018-08-09T05:10:48.543Z,13.70
2018-08-09T05:13:17.504Z,14.50
2018-08-09T05:15:46.239Z,13.40
2018-08-09T05:18:15.168Z,13.97
2018-08-09T05:20:43.488Z,13.70
2018-08-09T05:23:12.036Z,12.97
2018-08-09T05:25:40.263Z,14.50
2018-08-09T05:28:09.387Z,15.90
2018-08-09T05:30:38.187Z,20.97
2018-08-09T05:33:07.184Z,16.23
2018-08-09T05:35:35.745Z,17.83
2018-08-09T05:38:04.770Z,14.70
2018-08-09T05:40:33.641Z,14.33
2018-08-09T05:43:02.057Z,13.60
2018-08-09T05:45:30.843Z,14.27
2018-08-09T05:47:59.323Z,13.20
2018-08-09T05:50:27.825Z,15.00
2018-08-09T05:52:56.163Z,14.57
2018-08-09T05:55:24.455Z,14.07
2018-08-09T05:57:52.693Z,13.90
2018-08-09T06:00:22.068Z,15.87
2018-08-09T06:02:50.748Z,12.80
2018-08-09T06:05:19.264Z,12.57
2018-08-09T06:07:47.502Z,13.10
2018-08-09T06:10:16.133Z,12.57
2018-08-09T06:12:44.384Z,12.93
2018-08-09T06:15:12.748Z,11.80
2018-08-09T06:17:41.224Z,13.20
2018-08-09T06:20:09.527Z,12.23
2018-08-09T06:22:38.109Z,13.07
2018-08-09T06:25:06.971Z,13.23
2018-08-09T06:27:35.176Z,12.67
2018-08-09T06:30:04.345Z,12.40
2018-08-09T06:32:32.621Z,13.30
2018-08-09T06:35:01.083Z,13.37
2018-08-09T06:37:29.313Z,13.77
2018-08-09T06:39:57.531Z,12.23
2018-08-09T06:42:26.210Z,13.87
2018-08-09T06:44:54.668Z,12.53
2018-08-09T06:47:23.256Z,12.47
2018-08-09T06:49:51.859Z,12.40
2018-08-09T06:52:20.054Z,12.20
2018-08-09T06:54:49.356Z,10.97
2018-08-09T06:57:18.176Z,11.70
2018-08-09T06:59:46.650Z,11.50
2018-08-09T07:02:15.657Z,11.97
2018-08-09T07:04:44.692Z,11.73
2018-08-09T07:07:12.992Z,12.50
2018-08-09T07:09:41.237Z,11.60
2018-08-09T07:12:09.428Z,11.63
2018-08-09T07:14:37.608Z,12.17
2018-08-09T07:17:05.816Z,13.17
2018-08-09T07:19:34.043Z,13.40
2018-08-09T07:22:02.865Z,12.53
2018-08-09T07:24:31.147Z,11.77
2018-08-09T07:26:59.700Z,11.87
2018-08-09T07:29:27.977Z,11.83
2018-08-09T07:31:56.182Z,18.90
2018-08-09T07:34:24.420Z,11.80
2018-08-09T07:36:52.929Z,11.53
2018-08-09T07:39:21.165Z,10.70
2018-08-09T07:41:49.382Z,11.20
2018-08-09T07:44:17.951Z,11.63
2018-08-09T07:46:46.516Z,11.97
2018-08-09T07:49:14.720Z,12.47
2018-08-09T07:51:43.270Z,11.37
2018-08-09T07:54:11.467Z,11.40
2018-08-09T07:56:39.861Z,10.67
2018-08-09T07:59:08.362Z,10.30
2018-08-09T08:01:36.915Z,10.13
2018-08-09T08:04:05.221Z,9.43
2018-08-09T08:06:33.716Z,10.03
2018-08-09T08:09:01.957Z,9.20
2018-08-09T08:11:30.198Z,11.43
2018-08-09T08:13:58.413Z,9.63
2018-08-09T08:16:26.621Z,9.90
2018-08-09T08:18:55.167Z,9.23
2018-08-09T08:21:23.501Z,9.30
2018-08-09T08:23:51.784Z,7.83
2018-08-09T08:26:20.095Z,8.30
2018-08-09T08:28:48.470Z,8.97
2018-08-09T08:31:17.354Z,8.00
2018-08-09T08:33:46.186Z,9.17
2018-08-09T08:36:14.873Z,11.43
2018-08-09T08:38:43.127Z,8.37
2018-08-09T08:41:11.327Z,9.17
2018-08-09T08:43:39.800Z,9.20
2018-08-09T08:46:08.015Z,9.17
2018-08-09T08:48:36.764Z,12.13
2018-08-09T08:51:05.207Z,7.40
2018-08-09T08:53:33.454Z,7.33
2018-08-09T08:56:01.761Z,7.83
2018-08-09T08:58:30.213Z,8.03
2018-08-09T09:00:58.578Z,7.87
2018-08-09T09:03:27.476Z,7.83
2018-08-09T09:05:56.232Z,12.77
2018-08-09T09:08:24.916Z,10.50
2018-08-09T09:10:54.355Z,9.23
2018-08-09T09:13:23.280Z,7.60
2018-08-09T09:15:51.525Z,7.33
2018-08-09T09:18:20.327Z,7.73
2018-08-09T09:20:48.531Z,12.87
2018-08-09T09:23:17.039Z,10.47
2018-08-09T09:25:45.551Z,8.63
2018-08-09T09:28:14.313Z,10.93
2018-08-09T09:30:42.483Z,9.23
2018-08-09T09:33:11.126Z,8.33
2018-08-09T09:35:39.577Z,9.37
2018-08-09T09:38:07.796Z,9.83
2018-08-09T09:40:36.749Z,8.67
2018-08-09T09:43:05.231Z,7.70
2018-08-09T09:45:33.453Z,7.80
2018-08-09T09:48:01.949Z,8.00
2018-08-09T09:50:30.195Z,8.20
2018-08-09T09:52:58.410Z,8.63
2018-08-09T09:55:27.047Z,8.87
2018-08-09T09:57:55.499Z,7.80
2018-08-09T10:00:28.629Z,7.33
2018-08-09T10:02:56.801Z,7.27
2018-08-09T10:05:25.421Z,8.00
2018-08-09T10:07:53.628Z,7.27
2018-08-09T10:10:21.837Z,7.10
2018-08-09T10:12:51.421Z,9.57
2018-08-09T10:15:19.788Z,8.03
2018-08-09T10:17:48.268Z,7.27
2018-08-09T10:20:16.485Z,7.63
2018-08-09T10:22:44.793Z,6.87
2018-08-09T10:25:13.129Z,6.70
2018-08-09T10:27:41.327Z,6.77
2018-08-09T10:30:09.615Z,7.63
2018-08-09T10:32:37.836Z,7.00
2018-08-09T10:35:06.031Z,6.73
2018-08-09T10:37:34.820Z,7.80
2018-08-09T10:40:03.472Z,6.63
2018-08-09T10:42:32.028Z,6.10
2018-08-09T10:45:00.530Z,6.60
2018-08-09T10:47:29.622Z,6.37
2018-08-09T10:49:59.396Z,6.57
2018-08-09T10:52:27.648Z,6.23
2018-08-09T10:54:55.904Z,6.43
2018-08-09T10:57:24.333Z,6.80
2018-08-09T10:59:52.917Z,6.27
2018-08-09T11:02:22.232Z,6.73
2018-08-09T11:04:50.448Z,11.20
2018-08-09T11:07:18.718Z,7.00
2018-08-09T11:09:47.263Z,5.90
2018-08-09T11:12:15.740Z,6.30
2018-08-09T11:14:44.308Z,5.80
2018-08-09T11:17:12.537Z,7.57
2018-08-09T11:19:41.105Z,7.03
2018-08-09T11:22:09.597Z,8.00
2018-08-09T11:24:38.940Z,6.37
2018-08-09T11:27:07.440Z,7.30
2018-08-09T11:29:36.017Z,6.50
2018-08-09T11:32:04.240Z,7.10
2018-08-09T11:34:33.488Z,6.70
2018-08-09T11:37:01.689Z,7.63
2018-08-09T11:39:29.932Z,6.57
2018-08-09T11:41:59.314Z,5.60
2018-08-09T11:44:27.892Z,6.67
2018-08-09T11:46:56.817Z,5.80
2018-08-09T11:49:25.087Z,5.90
2018-08-09T11:51:53.523Z,7.13
2018-08-09T11:54:21.953Z,6.37
2018-08-09T11:56:51.071Z,5.80
2018-08-09T11:59:19.260Z,5.60
2018-08-09T12:01:47.756Z,5.80
2018-08-09T12:04:15.869Z,5.33
2018-08-09T12:06:44.771Z,5.63
2018-08-09T12:09:13.069Z,6.20
2018-08-09T12:11:41.349Z,6.17
2018-08-09T12:14:09.573Z,6.23
2018-08-09T12:16:37.838Z,6.70
2018-08-09T12:19:06.671Z,6.00
2018-08-09T12:21:35.115Z,6.80
2018-08-09T12:24:03.836Z,6.20
2018-08-09T12:26:32.685Z,6.57
2018-08-09T12:29:01.761Z,6.37
2018-08-09T12:31:29.971Z,6.17
2018-08-09T12:33:58.574Z,6.10
2018-08-09T12:36:26.887Z,6.57
2018-08-09T12:38:55.163Z,5.30
2018-08-09T12:41:23.547Z,5.30
2018-08-09T12:43:51.939Z,5.20
2018-08-09T12:46:20.121Z,4.57
2018-08-09T12:48:48.648Z,5.07
2018-08-09T12:51:17.467Z,4.93
2018-08-09T12:53:45.905Z,5.23
2018-08-09T12:56:14.098Z,5.43
2018-08-09T12:58:42.589Z,5.13
2018-08-09T13:01:10.889Z,5.80
2018-08-09T13:03:39.353Z,6.27
2018-08-09T13:06:07.567Z,5.77
2018-08-09T13:08:35.806Z,5.53
2018-08-09T13:11:05.023Z,4.53
2018-08-09T13:13:33.793Z,5.17
2018-08-09T13:16:02.127Z,5.90
2018-08-09T13:18:31.504Z,6.80
2018-08-09T13:20:59.703Z,5.70
2018-08-09T13:23:28.240Z,5.47
2018-08-09T13:25:57.619Z,5.40
2018-08-09T13:28:26.205Z,4.40
2018-08-09T13:30:55.225Z,4.50
2018-08-09T13:33:24.441Z,3.60
2018-08-09T13:35:52.790Z,3.50
2018-08-09T13:38:22.880Z,3.80
2018-08-09T13:40:51.736Z,3.33
2018-08-09T13:43:21.912Z,3.43
2018-08-09T13:45:52.094Z,3.30
2018-08-09T13:48:21.407Z,3.20
2018-08-09T13:50:49.729Z,3.20
2018-08-09T13:53:20.439Z,3.70
2018-08-09T13:55:52.061Z,4.40
2018-08-09T13:58:20.621Z,4.00
2018-08-09T14:00:49.777Z,3.93
2018-08-09T14:03:18.160Z,4.07
2018-08-09T14:05:47.091Z,4.17
2018-08-09T14:08:15.342Z,3.90
2018-08-09T14:10:43.563Z,4.13
2018-08-09T14:13:11.756Z,5.40
2018-08-09T14:15:40.113Z,4.13
2018-08-09T14:18:08.341Z,4.53
2018-08-09T14:20:36.590Z,4.10
2018-08-09T14:23:05.895Z,4.13
2018-08-09T14:25:34.116Z,4.37
2018-08-09T14:28:04.328Z,3.93
2018-08-09T14:30:33.090Z,3.90
2018-08-09T14:33:02.205Z,4.03
2018-08-09T14:35:30.427Z,4.13
2018-08-09T14:37:58.725Z,4.90
2018-08-09T14:40:27.240Z,4.43
2018-08-09T14:42:55.643Z,4.53
2018-08-09T14:45:24.141Z,4.13
2018-08-09T14:47:53.152Z,3.97
2018-08-09T14:50:21.707Z,4.57
2018-08-09T14:52:51.635Z,4.00
2018-08-09T14:55:20.207Z,4.27
2018-08-09T14:57:49.617Z,4.77
2018-08-09T15:00:19.225Z,4.20
2018-08-09T15:02:48.021Z,4.50
2018-08-09T15:05:17.043Z,4.83
2018-08-09T15:07:45.477Z,4.50
2018-08-09T15:10:15.057Z,4.80
2018-08-09T15:12:43.981Z,4.17
2018-08-09T15:15:12.762Z,4.10
2018-08-09T15:17:42.709Z,7.50
2018-08-09T15:20:13.376Z,4.20
2018-08-09T15:22:42.274Z,3.90
2018-08-09T15:25:11.296Z,4.17
2018-08-09T15:27:39.937Z,3.70
2018-08-09T15:30:19.070Z,4.23
2018-08-09T15:32:47.752Z,5.77
2018-08-09T15:35:18.217Z,6.20
2018-08-09T15:37:46.919Z,5.03
2018-08-09T15:40:15.437Z,4.13
2018-08-09T15:42:43.729Z,14.97
2018-08-09T15:45:15.119Z,4.50
2018-08-09T15:47:43.516Z,4.37
2018-08-09T15:50:14.969Z,4.23
2018-08-09T15:52:43.208Z,4.00
2018-08-09T15:55:12.117Z,4.00
2018-08-09T15:57:40.693Z,4.70
2018-08-09T16:00:14.230Z,4.60
2018-08-09T16:02:43.226Z,4.23
2018-08-09T16:05:11.434Z,4.10
2018-08-09T16:07:39.706Z,4.80
2018-08-09T16:10:12.049Z,7.97
2018-08-09T16:12:40.967Z,4.03
2018-08-09T16:15:12.840Z,3.80
2018-08-09T16:17:42.021Z,4.17
2018-08-09T16:20:11.190Z,3.50
2018-08-09T16:22:39.722Z,4.20
2018-08-09T16:25:14.448Z,4.03
2018-08-09T16:27:42.783Z,4.20
2018-08-09T16:30:16.104Z,5.30
2018-08-09T16:32:44.495Z,3.70
2018-08-09T16:35:13.362Z,3.73
2018-08-09T16:37:42.343Z,5.40
2018-08-09T16:40:19.943Z,4.17
2018-08-09T16:42:48.273Z,3.87
2018-08-09T16:45:17.984Z,5.13
2018-08-09T16:47:46.815Z,4.17
2018-08-09T16:50:18.561Z,5.17
2018-08-09T16:52:47.744Z,4.33
2018-08-09T16:55:17.621Z,4.33
2018-08-09T16:57:45.925Z,3.70
2018-08-09T17:00:23.443Z,4.73
2018-08-09T17:02:53.592Z,4.23
2018-08-09T17:05:24.613Z,3.47
2018-08-09T17:07:53.295Z,3.37
2018-08-09T17:10:23.342Z,3.50
2018-08-09T17:12:52.018Z,3.97
2018-08-09T17:15:26.011Z,5.00
2018-08-09T17:17:55.522Z,3.43
2018-08-09T17:20:33.705Z,3.43
2018-08-09T17:23:04.514Z,3.37
2018-08-09T17:25:32.866Z,4.70
2018-08-09T17:28:01.680Z,6.20
2018-08-09T17:30:30.795Z,2.93
2018-08-09T17:33:00.193Z,3.07
2018-08-09T17:35:28.831Z,3.30
2018-08-09T17:37:57.054Z,3.23
2018-08-09T17:40:28.360Z,3.00
2018-08-09T17:42:58.360Z,3.30
2018-08-09T17:45:28.991Z,3.20
2018-08-09T17:47:57.666Z,3.50
2018-08-09T17:50:25.950Z,3.53
2018-08-09T17:52:56.700Z,2.87
2018-08-09T17:55:25.033Z,3.33
2018-08-09T17:57:53.749Z,10.27
2018-08-09T18:00:27.168Z,3.33
2018-08-09T18:02:55.518Z,2.80
2018-08-09T18:05:23.836Z,3.00
2018-08-09T18:07:52.756Z,2.97
2018-08-09T18:10:23.834Z,3.00
2018-08-09T18:12:52.642Z,3.10
2018-08-09T18:15:21.854Z,4.10
2018-08-09T18:17:50.408Z,3.10
2018-08-09T18:20:21.341Z,2.80
2018-08-09T18:22:49.593Z,3.27
2018-08-09T18:25:18.068Z,3.97
2018-08-09T18:27:46.422Z,3.37
2018-08-09T18:30:16.875Z,3.20
2018-08-09T18:32:45.441Z,3.50
2018-08-09T18:35:15.535Z,3.40
2018-08-09T18:37:45.378Z,3.10
2018-08-09T18:40:20.141Z,3.17
2018-08-09T18:42:49.167Z,3.23
2018-08-09T18:45:17.796Z,3.20
2018-08-09T18:47:46.337Z,3.23
2018-08-09T18:50:18.549Z,3.00
2018-08-09T18:52:46.828Z,3.23
2018-08-09T18:55:16.824Z,3.50
2018-08-09T18:57:45.479Z,3.03
2018-08-09T19:00:25.833Z,2.80
2018-08-09T19:02:54.388Z,3.13
2018-08-09T19:05:23.629Z,2.83
2018-08-09T19:07:52.349Z,10.27
2018-08-09T19:10:29.043Z,3.20
2018-08-09T19:12:57.722Z,3.77
2018-08-09T19:15:27.389Z,3.20
2018-08-09T19:17:56.952Z,3.20
2018-08-09T19:20:32.198Z,3.30
2018-08-09T19:23:02.778Z,3.20
2018-08-09T19:25:31.090Z,3.10
2018-08-09T19:27:59.774Z,2.63
2018-08-09T19:30:30.663Z,3.00
2018-08-09T19:32:59.485Z,3.23
2018-08-09T19:35:28.621Z,3.30
2018-08-09T19:37:56.973Z,3.60
2018-08-09T19:40:27.928Z,3.80
2018-08-09T19:42:57.300Z,3.10
2018-08-09T19:45:26.798Z,3.00
2018-08-09T19:47:55.747Z,3.20
2018-08-09T19:50:25.240Z,3.50
2018-08-09T19:52:54.017Z,3.33
2018-08-09T19:55:24.004Z,3.63
2018-08-09T19:57:52.717Z,3.57
2018-08-09T20:00:26.393Z,3.57
2018-08-09T20:02:55.133Z,3.43
2018-08-09T20:05:24.132Z,8.63
2018-08-09T20:07:52.446Z,3.10
2018-08-09T20:10:21.365Z,4.87
2018-08-09T20:12:49.979Z,3.27
2018-08-09T20:15:21.046Z,3.00
2018-08-09T20:17:50.074Z,3.73
2018-08-09T20:20:20.069Z,3.30
2018-08-09T20:22:49.093Z,4.70
2018-08-09T20:25:17.367Z,3.40
2018-08-09T20:27:46.510Z,3.27
2018-08-09T20:30:17.745Z,3.23
2018-08-09T20:32:46.874Z,4.07
2018-08-09T20:35:20.105Z,5.33
2018-08-09T20:37:49.060Z,3.80
2018-08-09T20:40:18.075Z,4.60
2018-08-09T20:42:47.311Z,3.57
2018-08-09T20:45:17.881Z,3.70
2018-08-09T20:47:46.515Z,3.53
2018-08-09T20:50:17.747Z,3.30
2018-08-09T20:52:46.883Z,3.70
2018-08-09T20:55:15.680Z,3.30
2018-08-09T20:57:45.867Z,3.30
2018-08-09T21:00:20.570Z,3.30
2018-08-09T21:02:50.090Z,3.80
2018-08-09T21:05:27.889Z,3.73
2018-08-09T21:07:57.202Z,3.50
2018-08-09T21:10:27.507Z,3.70
2018-08-09T21:12:56.149Z,3.33
2018-08-09T21:15:25.072Z,3.60
2018-08-09T21:17:53.271Z,3.83
2018-08-09T21:20:21.476Z,3.00
2018-08-09T21:22:50.215Z,3.07
2018-08-09T21:25:20.411Z,3.20
2018-08-09T21:27:49.024Z,3.20
2018-08-09T21:30:19.444Z,3.13
2018-08-09T21:32:48.138Z,3.47
2018-08-09T21:35:16.381Z,3.20
2018-08-09T21:37:44.877Z,3.10
2018-08-09T21:40:14.129Z,3.10
2018-08-09T21:42:42.612Z,3.60
2018-08-09T21:45:13.998Z,9.23
2018-08-09T21:47:42.805Z,4.37
2018-08-09T21:50:14.830Z,4.30
2018-08-09T21:52:43.116Z,3.30
2018-08-09T21:55:12.536Z,2.70
2018-08-09T21:57:41.559Z,3.07
2018-08-09T22:00:52.548Z,2.50
2018-08-09T22:03:23.613Z,2.83
2018-08-09T22:05:57.644Z,3.00
2018-08-09T22:08:31.774Z,2.53
2018-08-09T22:11:05.748Z,2.80
2018-08-09T22:13:40.416Z,8.77
2018-08-09T22:16:14.219Z,3.07
2018-08-09T22:18:48.024Z,2.80
2018-08-09T22:21:21.804Z,3.77
2018-08-09T22:23:51.085Z,2.97
2018-08-09T22:26:20.309Z,2.70
2018-08-09T22:28:48.558Z,2.50
2018-08-09T22:31:16.918Z,2.90
2018-08-09T22:33:46.028Z,2.33
2018-08-09T22:36:14.284Z,3.33
2018-08-09T22:38:42.574Z,2.33
2018-08-09T22:41:11.054Z,2.90
2018-08-09T22:43:39.678Z,3.20
2018-08-09T22:46:08.541Z,3.20
2018-08-09T22:48:36.852Z,4.27
2018-08-09T22:51:06.351Z,3.90
2018-08-09T22:53:35.997Z,2.20
2018-08-09T22:56:04.426Z,4.23
2018-08-09T22:58:32.796Z,4.20
2018-08-09T23:01:01.030Z,4.13
2018-08-09T23:03:30.123Z,2.90
2018-08-09T23:05:58.385Z,2.83
2018-08-09T23:08:26.785Z,2.40
2018-08-09T23:10:54.974Z,2.73
2018-08-09T23:13:27.955Z,3.10
2018-08-09T23:15:56.461Z,4.90
2018-08-09T23:18:24.840Z,2.27
2018-08-09T23:20:53.653Z,2.27
2018-08-09T23:23:21.966Z,3.13
2018-08-09T23:25:50.856Z,2.00
2018-08-09T23:28:19.084Z,2.10
2018-08-09T23:30:47.665Z,2.10
2018-08-09T23:33:20.356Z,1.80
2018-08-09T23:35:49.038Z,1.93
2018-08-09T23:38:17.345Z,1.80
2018-08-09T23:40:46.177Z,2.00
2018-08-09T23:43:14.660Z,1.67
2018-08-09T23:45:43.375Z,1.50
2018-08-09T23:48:12.259Z,1.40
2018-08-09T23:50:41.538Z,1.57
2018-08-09T23:53:09.801Z,1.50
2018-08-09T23:55:38.158Z,1.97
2018-08-09T23:58:06.432Z,1.50
